Anaconda, MT

2:48 PM MDT on May 06, 2015 (GMT -0600)
RAWS | | Change Station
CLOSE
Current Station
Personal Weather Station
Location: Anaconda, MT
Elevation: 6700 ft
Nearby Weather Stations

Elev 6700 ft 46.18 °N, 113.13 °W | Updated 57 minutes ago

Overcast
Overcast
53 °F
Feels Like 53 °F
N
4
Wind Variable Wind from SE
Gusts 9.0 mph

Today
High -- | Low -- °F
--% Chance of Precip.
Yesterday
High -- | Low -- °F
Precip. -- in
6:11 AM 8:46 PM
Waning Gibbous, 92% visible
Pressure 29.81 in
Visibility 10.0 miles
Clouds Clear
Dew Point 29 °F
Humidity 39%
Rainfall in
Snow Depth Not available.
UV 11 out of 12
Pollen 6.90 out of 12
Air Quality Not available.
Flu Activity Local Activity
METAR KBTM 061953Z AUTO VRB04KT 10SM CLR 11/M05 A2987 RMK AO2 SLP095 T01111050

More Conditions Fewer Conditions

Pressure 29.81 in
Visibility 10.0 miles
Clouds Clear
Dew Point 29 °F
Humidity 39%
Rainfall in
Snow Depth Not available.
UV 11 out of 12
Pollen 6.90 out of 12
Air Quality Not available.
Flu Activity Local Activity
METAR KBTM 061953Z AUTO VRB04KT 10SM CLR 11/M05 A2987 RMK AO2 SLP095 T01111050

More Conditions Fewer Conditions

10-Day Weather Forecast

Almanac

Astronomy

May. 06, 2015 Rise Set
Actual Time
Civil Twilight
Nautical Twilight
Astronomical Twilight
Moon
Length of Visible Light
Length of Day
Tomorrow will be .
, % of the Moon is Illuminated

Today's Extremes

State Highs State Lows

Community

WunderPhotos

Upload Photos

1,819,012 photos uploaded!

WunderBlogs® & News

Nearby

Air Quality

  Air Quality AQ Index Pollutant
Not available.

Snow Depth

Station Depth Elevation

Earthquake Activity

City Distance Mag. Time & Date
Minimum magnitude displayed is 2.5.

Coastal Water Temperatures

Place Temperature

Stations

Nearby Weather Stations

Station Location Temp. Windchill Dew Point Humidity Wind Precip. Elev Updated Type